Time;durP1;ratioP1;P1;durP2;ratioP2;P2;SDS_P1;SDS_P2;PMS_P1;PMS_P2;Temp;Humidity;BMP_temperature;BMP_pressure;BME280_temperature;BME280_humidity;BME280_pressure;Samples;Min_cycle;Max_cycle;Signal;HPM_P1;HPM_P2
2021/07/10 00:01:20;;;;;;;;;18.00;18.00;;;;;26.15;56.82;101381.53;6287891;22;8797;-80
2021/07/10 00:04:15;;;;;;;;;21.60;21.60;;;;;26.17;58.40;101373.41;6305929;22;8861;-80
2021/07/10 00:07:11;;;;;;;;;22.00;22.00;;;;;26.23;58.62;101374.56;6304836;22;8908;-79
2021/07/10 00:10:09;;;;;;;;;20.20;20.20;;;;;26.17;57.98;101376.22;6306434;22;8853;-80
2021/07/10 00:13:04;;;;;;;;;21.80;21.80;;;;;26.06;58.13;101375.53;6306862;22;8781;-79
2021/07/10 00:16:00;;;;;;;;;21.40;21.40;;;;;26.09;58.63;101388.06;6306364;22;8781;-80
2021/07/10 00:18:55;;;;;;;;;20.00;20.00;;;;;25.97;57.98;101381.69;6306950;22;8839;-80
2021/07/10 00:21:51;;;;;;;;;22.20;22.20;;;;;26.05;58.92;101385.25;6306498;22;8817;-80
2021/07/10 00:24:47;;;;;;;;;24.40;24.40;;;;;26.10;59.01;101389.69;6306811;22;8769;-80
2021/07/10 00:27:44;;;;;;;;;13.40;13.40;;;;;26.04;57.83;101381.63;6306202;22;8785;-80
2021/07/10 00:30:40;;;;;;;;;23.20;22.20;;;;;26.04;57.42;101387.28;6307178;22;8793;-80
2021/07/10 00:33:36;;;;;;;;;22.40;22.40;;;;;25.94;57.47;101376.88;6306545;22;8769;-80
2021/07/10 00:36:31;;;;;;;;;21.80;21.80;;;;;26.04;58.88;101378.78;6306133;22;9480;-80
2021/07/10 00:39:27;;;;;;;;;19.80;19.80;;;;;25.93;57.89;101378.13;6286357;22;8792;-80
2021/07/10 00:42:23;;;;;;;;;19.80;19.80;;;;;25.94;58.55;101378.91;6306317;22;8777;-81
2021/07/10 00:45:19;;;;;;;;;23.20;23.20;;;;;25.91;58.84;101379.75;6306053;22;8788;-80
2021/07/10 00:48:15;;;;;;;;;22.40;22.40;;;;;25.90;59.41;101383.78;6306771;22;8894;-80
2021/07/10 00:51:11;;;;;;;;;21.80;20.80;;;;;26.01;59.07;101378.84;6305630;22;9443;-80
2021/07/10 00:54:06;;;;;;;;;23.60;23.60;;;;;25.86;59.62;101381.00;6286234;22;8821;-81
2021/07/10 00:57:03;;;;;;;;;20.60;20.60;;;;;25.72;58.64;101373.44;6306294;22;8781;-80
2021/07/10 01:00:03;;;;;;;;;22.40;21.40;;;;;25.74;59.64;101376.66;6305978;22;8781;-81
2021/07/10 01:02:59;;;;;;;;;22.40;22.20;;;;;25.63;57.60;101380.78;6306849;22;8845;-81
2021/07/10 01:05:55;;;;;;;;;23.40;23.40;;;;;25.87;59.31;101378.97;6305788;22;8777;-81
2021/07/10 01:08:50;;;;;;;;;24.80;24.60;;;;;25.87;59.23;101382.63;6285608;22;9554;-81
2021/07/10 01:11:46;;;;;;;;;21.00;21.00;;;;;25.93;59.69;101377.31;6286682;22;8800;-80
2021/07/10 01:14:43;;;;;;;;;18.60;18.60;;;;;25.75;57.59;101368.97;6305591;22;8789;-80
2021/07/10 01:17:38;;;;;;;;;22.80;21.60;;;;;25.82;58.85;101370.94;6305124;22;8823;-81
2021/07/10 01:20:50;;;;;;;;;20.80;20.80;;;;;25.82;58.65;101370.94;6305936;22;8839;-80
2021/07/10 01:23:48;;;;;;;;;18.80;18.80;;;;;25.62;57.71;101370.69;6306009;22;8800;-80
2021/07/10 01:26:43;;;;;;;;;11.00;11.00;;;;;25.71;59.61;101365.34;6285539;22;8827;-81
2021/07/10 01:29:40;;;;;;;;;22.60;22.00;;;;;25.72;58.97;101366.97;6305353;22;8878;-80
2021/07/10 01:32:37;;;;;;;;;20.60;20.60;;;;;25.77;58.62;101372.19;6306468;22;8815;-80
2021/07/10 01:35:33;;;;;;;;;19.60;19.60;;;;;25.54;57.94;101363.47;6306176;22;8781;-80
2021/07/10 01:38:29;;;;;;;;;17.20;17.20;;;;;25.67;59.00;101358.88;6285287;22;8769;-80
2021/07/10 01:41:24;;;;;;;;;19.40;19.40;;;;;25.67;59.05;101353.22;6305837;22;8781;-80
2021/07/10 01:44:21;;;;;;;;;21.80;21.80;;;;;25.68;59.46;101361.31;6307381;22;8916;-80
2021/07/10 01:47:18;;;;;;;;;17.20;16.20;;;;;25.64;59.12;101359.75;6306050;22;8819;-80
2021/07/10 01:50:14;;;;;;;;;20.40;20.40;;;;;25.58;58.80;101364.25;6306034;22;8784;-80
2021/07/10 01:53:11;;;;;;;;;21.00;20.20;;;;;25.66;59.70;101366.59;6284934;22;9503;-80
2021/07/10 01:56:07;;;;;;;;;20.20;19.60;;;;;25.69;58.26;101365.78;6305870;22;8874;-80
2021/07/10 01:59:03;;;;;;;;;20.80;20.80;;;;;25.71;59.65;101371.84;6305780;22;8787;-80
2021/07/10 02:01:59;;;;;;;;;21.80;21.80;;;;;25.75;59.25;101371.78;6305634;22;8793;-80
2021/07/10 02:04:54;;;;;;;;;17.60;17.60;;;;;25.75;57.75;101378.25;6306443;22;9515;-79
2021/07/10 02:07:50;;;;;;;;;12.80;12.80;;;;;25.69;57.96;101376.28;6284993;22;8785;-80
2021/07/10 02:10:46;;;;;;;;;20.60;20.60;;;;;25.69;57.95;101377.09;6305974;22;8923;-80
2021/07/10 02:13:42;;;;;;;;;19.40;19.40;;;;;25.58;57.84;101376.38;6305637;22;8804;-80
2021/07/10 02:16:38;;;;;;;;;18.80;18.80;;;;;25.35;57.70;101374.13;6306695;22;8800;-79
2021/07/10 02:19:34;;;;;;;;;18.60;18.60;;;;;25.56;59.49;101380.84;6284809;22;8777;-80
2021/07/10 02:22:29;;;;;;;;;20.20;20.20;;;;;25.66;59.99;101372.25;6305895;22;8797;-80
2021/07/10 02:25:27;;;;;;;;;18.20;18.20;;;;;25.72;59.71;101375.47;6305549;22;8843;-80
2021/07/10 02:28:22;;;;;;;;;19.20;19.20;;;;;25.80;59.22;101376.22;6285993;22;8793;-80
2021/07/10 02:31:19;;;;;;;;;21.60;21.60;;;;;25.82;59.50;101370.94;6308269;22;8769;-80
2021/07/10 02:34:15;;;;;;;;;20.80;20.80;;;;;25.66;59.07;101371.44;6287498;22;9475;-79
2021/07/10 02:37:11;;;;;;;;;22.00;20.60;;;;;25.78;59.45;101376.63;6307301;22;8781;-80
2021/07/10 02:40:08;;;;;;;;;24.60;24.60;;;;;25.73;59.88;101371.41;6288010;22;8831;-80
2021/07/10 02:43:04;;;;;;;;;18.20;18.20;;;;;25.79;59.55;101372.59;6307276;22;8781;-80
2021/07/10 02:45:59;;;;;;;;;27.25;27.25;;;;;25.75;59.85;101369.75;6307397;22;8873;-80
2021/07/10 02:48:58;;;;;;;;;24.40;24.40;;;;;25.49;59.73;101370.38;6308033;22;8887;-80
2021/07/10 02:51:54;;;;;;;;;24.80;23.60;;;;;25.64;60.34;101365.41;6307363;22;8816;-80
2021/07/10 02:54:50;;;;;;;;;22.40;22.40;;;;;25.50;59.73;101358.63;6307016;22;8783;-80
2021/07/10 02:57:45;;;;;;;;;22.00;22.00;;;;;25.34;60.22;101366.06;6286619;22;8821;-80
2021/07/10 03:00:41;;;;;;;;;24.20;23.80;;;;;25.39;60.43;101368.47;6307150;22;9502;-80
2021/07/10 03:03:37;;;;;;;;;23.00;23.00;;;;;25.33;60.26;101370.91;6307185;22;9997;-80
2021/07/10 03:06:32;;;;;;;;;24.60;24.60;;;;;25.25;59.33;101369.38;6306795;22;8819;-79
2021/07/10 03:09:28;;;;;;;;;24.20;24.20;;;;;25.04;60.61;101367.47;6306683;22;8785;-79
2021/07/10 03:12:23;;;;;;;;;20.50;20.50;;;;;25.01;61.08;101375.97;6306637;22;8770;-80
2021/07/10 03:15:19;;;;;;;;;24.00;24.00;;;;;25.21;61.43;101369.38;6306643;22;8785;-79
2021/07/10 03:18:14;;;;;;;;;20.67;20.67;;;;;25.36;60.69;101367.25;6306885;22;8773;-80
2021/07/10 03:21:10;;;;;;;;;24.40;24.40;;;;;25.21;60.37;101368.56;6307370;22;8793;-80
2021/07/10 03:24:05;;;;;;;;;22.60;22.60;;;;;25.32;60.56;101371.34;6306895;22;8788;-80
2021/07/10 03:27:01;;;;;;;;;23.20;23.20;;;;;25.02;60.43;101369.09;6307263;22;8823;-81
2021/07/10 03:29:57;;;;;;;;;25.75;24.00;;;;;24.87;61.16;101372.00;6307587;22;8805;-80
2021/07/10 03:32:53;;;;;;;;;25.80;25.80;;;;;24.93;61.44;101375.22;6307335;22;8785;-80
2021/07/10 03:35:49;;;;;;;;;25.00;24.75;;;;;25.10;61.47;101379.19;6285853;22;8785;-80
2021/07/10 03:38:45;;;;;;;;;23.50;23.25;;;;;25.12;61.70;101374.69;6307147;22;8841;-80
2021/07/10 03:41:41;;;;;;;;;26.75;26.75;;;;;25.27;60.98;101377.44;6306234;22;8816;-80
2021/07/10 03:44:36;;;;;;;;;26.75;26.75;;;;;25.44;60.94;101368.78;6306120;22;8828;-80
2021/07/10 03:47:32;;;;;;;;;28.75;28.75;;;;;25.40;60.23;101378.56;6306596;22;8874;-80
2021/07/10 03:50:27;;;;;;;;;16.60;16.60;;;;;25.59;60.55;101372.31;6306767;22;8842;-80
2021/07/10 03:53:23;;;;;;;;;27.00;27.00;;;;;25.68;60.22;101377.50;6307495;22;8785;-79
2021/07/10 03:56:19;;;;;;;;;24.60;24.60;;;;;25.84;60.26;101377.81;6306770;22;8789;-80
2021/07/10 03:59:15;;;;;;;;;21.80;21.80;;;;;25.94;60.52;101376.88;6306587;22;8810;-80
2021/07/10 04:02:11;;;;;;;;;26.00;26.00;;;;;25.95;60.71;101381.31;6308584;22;8789;-81
2021/07/10 04:05:07;;;;;;;;;26.00;26.00;;;;;25.89;60.16;101380.16;6306024;22;8804;-80
2021/07/10 04:08:03;;;;;;;;;24.80;24.80;;;;;26.05;60.03;101373.94;6286858;22;8789;-79
2021/07/10 04:10:59;;;;;;;;;31.25;30.25;;;;;25.77;60.08;101389.19;6285681;22;8781;-78
2021/07/10 04:13:54;;;;;;;;;27.80;26.80;;;;;26.04;59.94;101386.50;6286317;22;9594;-80
2021/07/10 04:16:50;;;;;;;;;27.20;27.20;;;;;26.19;58.78;101387.94;6285352;22;8788;-80
2021/07/10 04:19:46;;;;;;;;;27.80;27.80;;;;;26.09;58.55;101388.88;6307175;22;8781;-79
2021/07/10 04:22:42;;;;;;;;;29.80;29.40;;;;;26.15;58.97;101386.38;6306870;22;8923;-79
2021/07/10 04:25:37;;;;;;;;;25.00;25.00;;;;;26.47;59.17;101389.69;6307171;22;8801;-80
2021/07/10 04:28:33;;;;;;;;;27.20;27.20;;;;;26.60;58.39;101384.25;6307233;22;8795;-80
2021/07/10 04:31:32;;;;;;;;;28.40;26.20;;;;;26.64;58.36;101393.53;6307296;22;8789;-80
2021/07/10 04:34:29;;;;;;;;;25.80;25.80;;;;;26.59;58.13;101391.94;6306901;22;9534;-80
2021/07/10 04:37:24;;;;;;;;;25.20;25.20;;;;;26.57;57.77;101390.78;6306731;22;8773;-79
2021/07/10 04:40:20;;;;;;;;;26.40;26.40;;;;;26.71;58.37;101390.59;6305757;22;8879;-80
2021/07/10 04:43:16;;;;;;;;;30.20;29.20;;;;;26.85;57.69;101384.75;6308739;22;8789;-79
2021/07/10 04:46:11;;;;;;;;;32.60;30.80;;;;;27.04;57.94;101385.31;6306313;22;8777;-79
2021/07/10 04:49:07;;;;;;;;;27.80;27.80;;;;;27.22;57.54;101388.69;6285912;22;8828;-80
2021/07/10 04:52:03;;;;;;;;;30.60;29.60;;;;;27.01;56.95;101375.59;6306357;22;8795;-79
2021/07/10 04:54:58;;;;;;;;;28.00;27.80;;;;;27.09;57.22;101384.84;6306376;22;8788;-81
2021/07/10 04:57:54;;;;;;;;;34.20;32.00;;;;;27.36;57.49;101381.97;6305512;22;8804;-82
2021/07/10 05:00:50;;;;;;;;;30.80;29.80;;;;;27.28;58.26;101389.81;6306841;22;8880;-80
2021/07/10 05:03:45;;;;;;;;;27.40;27.40;;;;;27.46;56.57;101385.91;6305296;22;8784;-82
2021/07/10 05:06:41;;;;;;;;;32.40;31.00;;;;;27.65;56.34;101383.09;6306055;22;9475;-82
2021/07/10 05:09:37;;;;;;;;;32.80;30.40;;;;;27.65;58.19;101391.63;6306010;22;8808;-82
2021/07/10 05:12:32;;;;;;;;;28.80;28.40;;;;;27.78;56.59;101389.00;6285871;22;8781;-82
2021/07/10 05:15:28;;;;;;;;;28.80;28.40;;;;;27.81;57.07;101393.03;6285161;22;8805;-82
2021/07/10 05:18:24;;;;;;;;;29.80;29.20;;;;;28.00;57.25;101386.59;6305189;22;8788;-83
2021/07/10 05:21:23;;;;;;;;;35.40;32.80;;;;;28.04;57.09;101389.34;6306031;22;8866;-82
2021/07/10 05:24:18;;;;;;;;;31.60;30.40;;;;;28.22;56.79;101381.31;6305568;22;8781;-82
2021/07/10 05:27:14;;;;;;;;;36.50;33.50;;;;;28.51;56.21;101388.03;6305436;22;8793;-82
2021/07/10 05:30:15;;;;;;;;;27.80;27.80;;;;;28.60;55.21;101387.47;6305138;22;8781;-82
2021/07/10 05:33:11;;;;;;;;;27.20;27.20;;;;;28.74;54.69;101381.44;6306589;22;8785;-81
2021/07/10 05:36:07;;;;;;;;;33.60;31.60;;;;;28.68;56.47;101382.41;6305142;22;8902;-80
2021/07/10 05:39:03;;;;;;;;;32.80;31.20;;;;;28.59;56.05;101380.13;6307364;22;8887;-81
2021/07/10 05:41:59;;;;;;;;;35.40;32.40;;;;;28.79;55.51;101382.97;6305510;22;8807;-80
2021/07/10 05:44:54;;;;;;;;;31.60;30.00;;;;;28.85;55.15;101384.06;6305530;22;8912;-81
2021/07/10 05:47:50;;;;;;;;;30.20;29.20;;;;;29.12;54.37;101383.06;6305140;22;8792;-80
2021/07/10 05:50:47;;;;;;;;;30.00;29.20;;;;;28.95;54.48;101391.59;6305854;22;8785;-78
2021/07/10 05:53:42;;;;;;;;;29.00;28.80;;;;;29.12;53.96;101385.91;6305021;22;8777;-80
2021/07/10 05:56:38;;;;;;;;;32.20;30.60;;;;;29.02;54.47;101387.78;6305206;22;8793;-79
2021/07/10 05:59:33;;;;;;;;;30.60;29.60;;;;;29.29;54.19;101381.84;6306478;22;8879;-80
2021/07/10 06:02:29;;;;;;;;;29.80;29.20;;;;;29.48;53.58;101385.88;6305893;22;8828;-80
2021/07/10 06:05:28;;;;;;;;;30.40;29.20;;;;;29.51;53.74;101382.94;6308656;22;8777;-81
2021/07/10 06:08:24;;;;;;;;;26.80;26.60;;;;;29.63;53.46;101390.78;6306906;22;8793;-81
2021/07/10 06:11:19;;;;;;;;;30.80;29.80;;;;;29.89;53.08;101380.31;6306080;22;8861;-83
2021/07/10 06:14:15;;;;;;;;;27.20;27.20;;;;;29.95;52.63;101379.78;6308672;22;8797;-82
2021/07/10 06:17:10;;;;;;;;;32.00;30.80;;;;;30.07;52.36;101376.22;6305884;22;8781;-83
2021/07/10 06:20:11;;;;;;;;;26.00;26.00;;;;;30.20;51.77;101376.25;6306157;22;8907;-83
2021/07/10 06:23:07;;;;;;;;;29.00;29.00;;;;;30.39;50.33;101372.47;6307148;22;8824;-82
2021/07/10 06:26:03;;;;;;;;;33.60;30.00;;;;;30.54;50.05;101370.78;6285493;22;9467;-84
2021/07/10 06:29:00;;;;;;;;;26.60;26.60;;;;;30.60;48.90;101371.84;6286044;22;8870;-81
2021/07/10 06:31:56;;;;;;;;;25.40;25.20;;;;;30.46;48.47;101372.25;6312981;22;8803;-83
2021/07/10 06:34:52;;;;;;;;;22.20;22.20;;;;;30.18;48.16;101371.81;6309695;22;8785;-78
2021/07/10 06:37:49;;;;;;;;;24.40;24.00;;;;;30.28;48.42;101371.97;6307297;22;8792;-82
2021/07/10 06:40:45;;;;;;;;;22.40;22.40;;;;;30.64;48.09;101375.38;6287489;22;8825;-82
2021/07/10 06:43:43;;;;;;;;;21.20;21.20;;;;;30.67;48.38;101374.50;6309153;22;8872;-83
2021/07/10 06:46:38;;;;;;;;;20.20;20.20;;;;;30.79;47.29;101378.63;6286477;22;9523;-84
2021/07/10 06:49:34;;;;;;;;;24.40;24.40;;;;;30.97;46.67;101376.00;6310098;22;8792;-85
2021/07/10 06:52:29;;;;;;;;;23.40;23.40;;;;;31.06;45.67;101374.56;6287089;22;8854;-84
2021/07/10 06:55:25;;;;;;;;;24.20;24.00;;;;;31.17;45.09;101370.09;6318753;22;8911;-84
2021/07/10 06:58:21;;;;;;;;;23.40;23.40;;;;;31.29;45.67;101364.88;6308567;22;8785;-86
2021/07/10 07:01:16;;;;;;;;;25.20;24.40;;;;;31.07;43.87;101359.81;6306233;22;9058;-83
2021/07/10 07:04:12;;;;;;;;;21.00;21.00;;;;;31.33;45.07;101362.66;6293384;22;8786;-85
2021/07/10 07:07:08;;;;;;;;;18.40;18.40;;;;;31.40;44.48;101365.28;6296191;22;9507;-84
2021/07/10 07:10:06;;;;;;;;;23.20;23.20;;;;;31.47;43.79;101365.06;6278647;22;8790;-82
2021/07/10 07:13:02;;;;;;;;;32.40;28.40;;;;;31.75;44.80;101369.00;6275716;22;8983;-84
2021/07/10 07:15:58;;;;;;;;;22.00;22.00;;;;;31.96;42.26;101373.19;6276389;22;8875;-83
2021/07/10 07:18:53;;;;;;;;;21.40;21.40;;;;;32.06;43.50;101377.75;6277989;22;8786;-84
2021/07/10 07:21:49;;;;;;;;;17.80;17.80;;;;;31.93;43.21;101376.97;6277172;22;8782;-83
2021/07/10 07:24:45;;;;;;;;;20.40;20.40;;;;;31.79;42.78;101369.69;6276742;22;8786;-84
2021/07/10 07:27:41;;;;;;;;;22.00;22.00;;;;;32.00;42.43;101377.53;6274586;22;8798;-85
2021/07/10 07:30:37;;;;;;;;;21.00;21.00;;;;;32.01;42.52;101370.53;6293611;22;8817;-84
2021/07/10 07:33:32;;;;;;;;;21.00;21.00;;;;;31.89;39.96;101374.22;6277188;22;8929;-81
2021/07/10 07:36:28;;;;;;;;;20.00;19.80;;;;;31.71;40.85;101366.25;6274940;22;8871;-80
2021/07/10 07:39:24;;;;;;;;;20.40;20.40;;;;;32.04;41.27;101374.53;6276567;22;8774;-84
2021/07/10 07:42:20;;;;;;;;;17.80;17.80;;;;;32.32;39.97;101369.84;6276720;22;8793;-85
2021/07/10 07:45:17;;;;;;;;;16.60;16.60;;;;;32.40;40.05;101367.53;6294944;22;8875;-84
2021/07/10 07:48:12;;;;;;;;;18.80;18.80;;;;;32.68;38.80;101371.38;6277347;22;8794;-85
2021/07/10 07:51:09;;;;;;;;;20.00;20.00;;;;;32.65;38.18;101368.16;6276671;22;8797;-84
2021/07/10 07:54:05;;;;;;;;;16.40;16.40;;;;;32.80;38.22;101367.59;6277891;22;8869;-86
2021/07/10 07:57:01;;;;;;;;;19.40;19.40;;;;;32.82;37.54;101362.19;6274466;22;8797;-84
2021/07/10 07:59:58;;;;;;;;;15.00;15.00;;;;;32.77;36.52;101355.03;6276453;22;8903;-85
2021/07/10 08:02:53;;;;;;;;;18.00;17.40;;;;;32.76;35.98;101355.50;6276295;22;8807;-85
2021/07/10 08:05:51;;;;;;;;;15.40;15.40;;;;;32.72;35.01;101344.16;6299491;22;8810;-85
2021/07/10 08:08:46;;;;;;;;;17.80;17.80;;;;;33.02;36.14;101354.06;6278349;22;8821;-84
2021/07/10 08:11:42;;;;;;;;;15.00;15.00;;;;;32.96;34.54;101358.00;6276945;22;8783;-84
2021/07/10 08:14:38;;;;;;;;;12.00;12.00;;;;;32.92;32.88;101346.69;6276323;22;8797;-83
2021/07/10 08:17:34;;;;;;;;;15.20;15.20;;;;;32.80;32.91;101342.63;6276661;22;8861;-85
2021/07/10 08:20:30;;;;;;;;;13.60;13.60;;;;;32.96;34.22;101340.81;6305145;22;8815;-82
2021/07/10 08:23:26;;;;;;;;;13.80;13.80;;;;;33.20;35.44;101338.97;6306214;22;8805;-85
2021/07/10 08:26:22;;;;;;;;;10.20;10.20;;;;;32.87;32.64;101350.16;6285607;22;8800;-86
2021/07/10 08:29:18;;;;;;;;;13.20;12.60;;;;;33.05;33.31;101337.97;6277527;22;8789;-87
2021/07/10 08:32:13;;;;;;;;;17.40;16.60;;;;;32.87;32.26;101353.81;6297202;22;8829;-76
2021/07/10 08:35:09;;;;;;;;;13.00;13.00;;;;;32.82;32.69;101345.00;6285798;22;8861;-83
2021/07/10 08:38:05;;;;;;;;;14.00;14.00;;;;;33.02;33.33;101334.00;6309197;22;8789;-84
2021/07/10 08:41:03;;;;;;;;;14.40;14.40;;;;;33.42;34.86;101331.09;6285744;22;8796;-85
2021/07/10 08:43:59;;;;;;;;;14.60;12.00;;;;;33.32;33.11;101343.00;6308391;22;8789;-81
2021/07/10 08:46:55;;;;;;;;;10.40;10.40;;;;;33.38;33.51;101344.81;6305978;22;8871;-84
2021/07/10 08:49:51;;;;;;;;;12.80;12.80;;;;;33.84;31.79;101332.59;6304633;22;8777;-86
2021/07/10 08:52:48;;;;;;;;;14.40;14.40;;;;;34.04;32.04;101332.94;6305915;22;9499;-83
2021/07/10 08:55:43;;;;;;;;;15.00;15.00;;;;;33.92;31.01;101337.56;6307642;22;8797;-84
2021/07/10 08:58:39;;;;;;;;;13.20;13.20;;;;;33.87;32.82;101343.13;6305850;22;8921;-82
2021/07/10 09:01:35;;;;;;;;;13.00;13.00;;;;;33.65;31.86;101329.69;6305693;22;8784;-82
2021/07/10 09:04:31;;;;;;;;;15.80;15.80;;;;;34.02;32.35;101329.75;6306613;22;8773;-80
2021/07/10 09:07:26;;;;;;;;;14.20;14.20;;;;;34.00;31.42;101330.22;6306607;22;8809;-84
2021/07/10 09:10:35;;;;;;;;;13.00;13.00;;;;;33.69;31.06;101318.09;6306249;22;8773;-83
2021/07/10 09:13:53;;;;;;;;;13.60;13.60;;;;;34.29;31.50;101315.38;6305861;22;8945;-86
2021/07/10 09:16:48;;;;;;;;;20.00;20.00;;;;;33.95;31.14;101318.59;6285394;22;8891;-86
2021/07/10 09:19:45;;;;;;;;;16.20;16.20;;;;;34.00;32.09;101306.47;6285558;22;8780;-86
2021/07/10 09:22:41;;;;;;;;;15.80;15.80;;;;;33.87;31.18;101312.34;6286808;22;8808;-86
2021/07/10 09:25:36;;;;;;;;;17.60;17.60;;;;;34.33;32.01;101308.66;6304308;22;8785;-84
2021/07/10 09:28:32;;;;;;;;;19.40;19.40;;;;;34.06;30.96;101306.66;6305730;22;8789;-78
2021/07/10 09:31:35;;;;;;;;;26.00;25.60;;;;;34.35;30.92;101301.16;6267795;22;8781;-81
2021/07/10 09:34:42;;;;;;;;;20.20;20.00;;;;;34.16;30.75;101300.41;6290851;22;8784;-79
2021/07/10 09:37:38;;;;;;;;;14.80;14.80;;;;;34.54;30.87;101296.19;6309897;22;8871;-81
2021/07/10 09:40:36;;;;;;;;;14.80;14.80;;;;;34.07;31.26;101302.50;6307226;22;8876;-78
2021/07/10 09:43:35;;;;;;;;;14.60;14.60;;;;;34.42;32.03;101292.22;6309717;22;9660;-80
2021/07/10 09:46:56;;;;;;;;;16.20;16.00;;;;;34.46;31.09;101295.75;6293298;22;8965;-80
2021/07/10 09:49:54;;;;;;;;;14.00;14.00;;;;;34.45;30.34;101302.75;6308227;22;8800;-81
2021/07/10 09:52:52;;;;;;;;;15.40;15.40;;;;;34.58;32.12;101302.53;6308132;22;8845;-81
2021/07/10 09:55:48;;;;;;;;;12.00;12.00;;;;;34.31;30.87;101288.25;6312317;22;8894;-82
2021/07/10 09:58:44;;;;;;;;;13.20;13.20;;;;;34.41;30.86;101307.88;6308564;22;8785;-79
2021/07/10 10:01:43;;;;;;;;;8.60;8.60;;;;;34.28;30.06;101298.63;6310323;22;8826;-82
2021/07/10 10:04:39;;;;;;;;;13.80;13.80;;;;;34.56;30.74;101285.81;6289168;22;8800;-82
2021/07/10 10:07:50;;;;;;;;;12.80;12.80;;;;;34.54;31.24;101294.13;6308295;22;8827;-79
2021/07/10 10:10:52;;;;;;;;;13.60;13.60;;;;;35.01;30.77;101283.25;6288296;22;8815;-82
2021/07/10 10:13:48;;;;;;;;;13.00;13.00;;;;;35.07;30.79;101278.44;6310214;22;8804;-78
2021/07/10 10:16:46;;;;;;;;;12.00;12.00;;;;;35.31;29.26;101266.94;6307337;22;8870;-82
2021/07/10 10:19:43;;;;;;;;;12.80;12.80;;;;;35.49;29.21;101278.31;6285573;22;9510;-79
2021/07/10 10:22:40;;;;;;;;;14.00;14.00;;;;;35.35;31.37;101288.47;6306687;22;8781;-82
2021/07/10 10:25:36;;;;;;;;;10.80;10.80;;;;;35.03;30.59;101284.34;6306110;22;8816;-85
2021/07/10 10:28:32;;;;;;;;;14.00;14.00;;;;;34.83;31.00;101284.91;6286152;22;9315;-77
2021/07/10 10:31:29;;;;;;;;;33.40;31.00;;;;;34.87;29.88;101276.09;6308267;22;8851;-83
2021/07/10 10:34:25;;;;;;;;;18.00;18.00;;;;;35.32;30.74;101280.03;6313206;22;8773;-83
2021/07/10 10:37:21;;;;;;;;;12.80;12.80;;;;;35.04;29.69;101276.50;6306268;22;9331;-81
2021/07/10 10:40:21;;;;;;;;;10.40;10.40;;;;;35.14;29.81;101269.44;6310462;22;8843;-80
2021/07/10 10:43:19;;;;;;;;;11.20;11.20;;;;;34.91;29.94;101273.88;6307524;22;9596;-78
2021/07/10 10:46:23;;;;;;;;;11.80;11.80;;;;;35.04;30.50;101270.75;6306771;22;8784;-81
2021/07/10 10:49:49;;;;;;;;;13.20;13.20;;;;;34.38;28.97;101276.44;6304259;22;8874;-76
2021/07/10 10:52:47;;;;;;;;;12.40;12.40;;;;;34.54;28.90;101267.47;6305460;22;8789;-78
2021/07/10 10:55:45;;;;;;;;;14.40;14.40;;;;;34.63;29.43;101263.78;6287455;22;8781;-80
2021/07/10 10:58:44;;;;;;;;;13.00;12.40;;;;;34.93;29.09;101253.28;6305697;22;8777;-83
2021/07/10 11:01:40;;;;;;;;;14.80;14.80;;;;;35.25;29.88;101257.38;6285341;22;8789;-78
2021/07/10 11:04:45;;;;;;;;;11.40;11.40;;;;;35.29;30.46;101252.25;6306282;22;8888;-81
2021/07/10 11:08:21;;;;;;;;;10.80;10.80;;;;;34.83;29.53;101255.38;6296801;22;9523;-80
2021/07/10 11:11:19;;;;;;;;;10.00;10.00;;;;;35.38;28.99;101255.06;6313101;22;8840;-79
2021/07/10 11:14:16;;;;;;;;;13.60;12.40;;;;;35.10;29.05;101251.56;6305760;22;9492;-78
2021/07/10 11:17:13;;;;;;;;;12.00;12.00;;;;;35.56;28.42;101260.69;6306393;22;8800;-81
2021/07/10 11:20:10;;;;;;;;;9.20;9.20;;;;;35.89;29.23;101259.81;6306559;22;9512;-78
2021/07/10 11:23:06;;;;;;;;;11.00;11.00;;;;;35.63;28.76;101254.56;6305379;22;8785;-78
2021/07/10 11:26:10;;;;;;;;;9.60;9.60;;;;;35.56;28.84;101249.19;6285492;22;8777;-79
2021/07/10 11:29:21;;;;;;;;;11.00;11.00;;;;;35.80;28.44;101251.22;6311455;22;8777;-80
2021/07/10 11:32:25;;;;;;;;;10.80;10.80;;;;;35.55;28.60;101241.84;6310674;22;8812;-79
2021/07/10 11:35:35;;;;;;;;;11.20;11.20;;;;;36.26;27.99;101245.00;6307860;22;8893;-83
2021/07/10 11:38:40;;;;;;;;;12.20;12.20;;;;;36.00;27.67;101253.47;6305452;22;8773;-78
2021/07/10 11:41:38;;;;;;;;;12.00;12.00;;;;;36.23;27.51;101238.16;6306556;22;8789;-80
2021/07/10 11:44:41;;;;;;;;;12.40;12.40;;;;;36.08;27.53;101238.16;6306642;22;8800;-80
2021/07/10 11:47:43;;;;;;;;;11.80;11.80;;;;;36.06;28.82;101237.88;6306401;22;8821;-78
2021/07/10 11:50:40;;;;;;;;;16.20;16.20;;;;;35.86;28.46;101246.38;6307958;22;8785;-80
2021/07/10 11:53:36;;;;;;;;;14.20;14.20;;;;;36.27;28.97;101243.72;6307608;22;8848;-81
2021/07/10 11:56:32;;;;;;;;;16.00;13.00;;;;;35.99;27.23;101240.34;6305066;22;8781;-79
2021/07/10 11:59:27;;;;;;;;;15.00;15.00;;;;;35.97;27.56;101237.19;6286098;22;8831;-83
2021/07/10 12:02:32;;;;;;;;;11.40;11.40;;;;;36.09;27.98;101233.22;6286064;22;8825;-77
2021/07/10 12:05:33;;;;;;;;;13.20;13.20;;;;;36.29;27.86;101230.44;6293083;22;8811;-81
2021/07/10 12:08:30;;;;;;;;;11.00;11.00;;;;;36.37;27.60;101242.38;6305942;22;8895;-79
2021/07/10 12:11:28;;;;;;;;;11.00;11.00;;;;;36.38;27.90;101238.19;6305566;22;8903;-81
2021/07/10 12:14:24;;;;;;;;;8.00;8.00;;;;;36.46;27.88;101234.41;6306123;22;8854;-81
2021/07/10 12:17:21;;;;;;;;;9.40;9.40;;;;;36.65;27.13;101237.03;6305697;22;8823;-80
2021/07/10 12:20:23;;;;;;;;;10.00;10.00;;;;;36.42;27.44;101228.06;6307344;22;8889;-75
2021/07/10 12:23:22;;;;;;;;;10.60;10.60;;;;;36.46;27.29;101225.75;6304039;22;8788;-78
2021/07/10 12:26:20;;;;;;;;;14.00;14.00;;;;;36.26;28.07;101221.97;6304633;22;8805;-78
2021/07/10 12:29:15;;;;;;;;;8.00;8.00;;;;;36.50;26.99;101227.63;6304646;22;8781;-77
2021/07/10 12:32:23;;;;;;;;;11.20;11.20;;;;;36.66;26.99;101219.28;6286771;22;8827;-80
2021/07/10 12:35:19;;;;;;;;;12.40;12.40;;;;;36.23;27.61;101222.97;6305803;22;8797;-79
2021/07/10 12:38:14;;;;;;;;;15.80;15.00;;;;;36.35;29.18;101211.16;6306164;22;8812;-79
2021/07/10 12:41:29;;;;;;;;;13.40;13.40;;;;;36.57;26.28;101216.47;6305232;22;8803;-76
2021/07/10 12:44:29;;;;;;;;;9.60;9.60;;;;;36.35;27.88;101214.03;6298233;22;8801;-77
2021/07/10 12:47:26;;;;;;;;;9.60;9.60;;;;;36.35;28.10;101214.03;6308152;22;8797;-78
2021/07/10 12:50:22;;;;;;;;;10.00;10.00;;;;;36.26;26.22;101208.38;6305556;22;8797;-80
2021/07/10 12:53:21;;;;;;;;;12.60;12.60;;;;;36.67;26.79;101205.66;6305892;22;8797;-80
2021/07/10 12:56:33;;;;;;;;;10.00;10.00;;;;;36.66;28.24;101198.31;6284310;22;8785;-78
2021/07/10 12:59:33;;;;;;;;;16.00;14.00;;;;;36.63;27.17;101202.97;6307038;22;9487;-80
2021/07/10 13:02:32;;;;;;;;;7.00;7.00;;;;;36.98;27.02;101193.53;6305463;22;8781;-81
2021/07/10 13:05:33;;;;;;;;;10.80;10.80;;;;;37.33;27.60;101195.56;6308304;22;8804;-81
2021/07/10 13:08:32;;;;;;;;;10.60;10.60;;;;;36.69;27.56;101191.53;6306427;22;8888;-79
2021/07/10 13:11:27;;;;;;;;;13.80;9.80;;;;;36.33;26.35;101187.81;6304755;22;8820;-78
2021/07/10 13:14:23;;;;;;;;;11.00;11.00;;;;;36.20;27.08;101191.03;6304305;22;8887;-79
2021/07/10 13:17:19;;;;;;;;;11.40;10.00;;;;;36.37;27.55;101194.19;6306974;22;8781;-80
2021/07/10 13:20:30;;;;;;;;;11.00;10.40;;;;;36.19;26.36;101188.63;6295745;22;8797;-79
2021/07/10 13:23:29;;;;;;;;;9.20;9.20;;;;;36.23;26.92;101186.34;6284724;22;8801;-80
2021/07/10 13:26:28;;;;;;;;;12.00;12.00;;;;;36.14;26.86;101184.38;6305487;22;8870;-78
2021/07/10 13:29:33;;;;;;;;;10.80;10.80;;;;;36.43;27.32;101177.81;6306333;22;8772;-76
2021/07/10 13:32:30;;;;;;;;;8.80;8.80;;;;;36.29;27.07;101174.94;6286822;22;8880;-77
2021/07/10 13:35:26;;;;;;;;;10.00;10.00;;;;;36.49;27.70;101172.13;6284510;22;8804;-78